sensor_id;sensor_type;location;lat;lon;timestamp;P1;durP1;ratioP1;P2;durP2;ratioP2
41677;SDS011;27364;49.026;8.712;2022-08-30T00:00:12;9.75;;;3.35;;
41677;SDS011;27364;49.026;8.712;2022-08-30T00:02:59;4.53;;;2.85;;
41677;SDS011;27364;49.026;8.712;2022-08-30T00:05:26;7.45;;;2.92;;
41677;SDS011;27364;49.026;8.712;2022-08-30T00:07:52;4.97;;;3.07;;
41677;SDS011;27364;49.026;8.712;2022-08-30T00:10:18;5.63;;;2.85;;
41677;SDS011;27364;49.026;8.712;2022-08-30T00:12:44;7.05;;;3.05;;
41677;SDS011;27364;49.026;8.712;2022-08-30T00:15:10;5.03;;;2.65;;
41677;SDS011;27364;49.026;8.712;2022-08-30T00:17:37;7.57;;;2.80;;
41677;SDS011;27364;49.026;8.712;2022-08-30T00:20:03;5.13;;;2.92;;
41677;SDS011;27364;49.026;8.712;2022-08-30T00:22:30;5.07;;;2.97;;
41677;SDS011;27364;49.026;8.712;2022-08-30T00:24:57;4.72;;;2.60;;
41677;SDS011;27364;49.026;8.712;2022-08-30T00:27:24;4.85;;;2.90;;
41677;SDS011;27364;49.026;8.712;2022-08-30T00:29:54;7.78;;;3.05;;
41677;SDS011;27364;49.026;8.712;2022-08-30T00:32:20;5.93;;;3.05;;
41677;SDS011;27364;49.026;8.712;2022-08-30T00:34:47;6.25;;;3.08;;
41677;SDS011;27364;49.026;8.712;2022-08-30T00:37:15;5.50;;;3.15;;
41677;SDS011;27364;49.026;8.712;2022-08-30T00:39:41;6.72;;;3.05;;
41677;SDS011;27364;49.026;8.712;2022-08-30T00:42:07;5.95;;;3.03;;
41677;SDS011;27364;49.026;8.712;2022-08-30T00:44:34;4.68;;;2.70;;
41677;SDS011;27364;49.026;8.712;2022-08-30T00:47:00;4.45;;;2.75;;
41677;SDS011;27364;49.026;8.712;2022-08-30T00:49:26;6.07;;;2.83;;
41677;SDS011;27364;49.026;8.712;2022-08-30T00:51:53;5.57;;;3.28;;
41677;SDS011;27364;49.026;8.712;2022-08-30T00:54:20;6.60;;;3.58;;
41677;SDS011;27364;49.026;8.712;2022-08-30T00:56:46;11.60;;;3.88;;
41677;SDS011;27364;49.026;8.712;2022-08-30T00:59:13;9.43;;;3.13;;
41677;SDS011;27364;49.026;8.712;2022-08-30T01:01:39;7.07;;;3.40;;
41677;SDS011;27364;49.026;8.712;2022-08-30T01:04:05;10.48;;;3.67;;
41677;SDS011;27364;49.026;8.712;2022-08-30T01:06:32;6.85;;;3.63;;
41677;SDS011;27364;49.026;8.712;2022-08-30T01:08:59;5.32;;;3.38;;
41677;SDS011;27364;49.026;8.712;2022-08-30T01:11:26;7.47;;;3.33;;
41677;SDS011;27364;49.026;8.712;2022-08-30T01:13:52;9.63;;;3.53;;
41677;SDS011;27364;49.026;8.712;2022-08-30T01:18:46;6.13;;;3.15;;
41677;SDS011;27364;49.026;8.712;2022-08-30T01:23:45;6.10;;;3.38;;
41677;SDS011;27364;49.026;8.712;2022-08-30T01:26:14;5.80;;;3.33;;
41677;SDS011;27364;49.026;8.712;2022-08-30T01:28:41;4.82;;;2.78;;
41677;SDS011;27364;49.026;8.712;2022-08-30T01:31:10;7.63;;;3.33;;
41677;SDS011;27364;49.026;8.712;2022-08-30T01:33:35;4.53;;;2.97;;
41677;SDS011;27364;49.026;8.712;2022-08-30T01:36:04;8.75;;;3.30;;
41677;SDS011;27364;49.026;8.712;2022-08-30T01:38:34;5.25;;;3.00;;
41677;SDS011;27364;49.026;8.712;2022-08-30T01:43:37;5.07;;;3.10;;
41677;SDS011;27364;49.026;8.712;2022-08-30T01:46:02;7.13;;;3.50;;
41677;SDS011;27364;49.026;8.712;2022-08-30T01:48:28;8.07;;;3.50;;
41677;SDS011;27364;49.026;8.712;2022-08-30T01:50:54;4.80;;;2.90;;
41677;SDS011;27364;49.026;8.712;2022-08-30T01:53:19;7.13;;;3.00;;
41677;SDS011;27364;49.026;8.712;2022-08-30T01:55:45;6.47;;;3.17;;
41677;SDS011;27364;49.026;8.712;2022-08-30T01:58:11;7.47;;;3.30;;
41677;SDS011;27364;49.026;8.712;2022-08-30T02:00:36;6.32;;;3.33;;
41677;SDS011;27364;49.026;8.712;2022-08-30T02:03:02;5.43;;;3.10;;
41677;SDS011;27364;49.026;8.712;2022-08-30T02:05:28;9.27;;;4.13;;
41677;SDS011;27364;49.026;8.712;2022-08-30T02:07:54;8.13;;;3.63;;
41677;SDS011;27364;49.026;8.712;2022-08-30T02:10:19;6.03;;;3.70;;
41677;SDS011;27364;49.026;8.712;2022-08-30T02:12:45;7.28;;;3.97;;
41677;SDS011;27364;49.026;8.712;2022-08-30T02:15:11;7.90;;;3.67;;
41677;SDS011;27364;49.026;8.712;2022-08-30T02:17:38;5.97;;;3.58;;
41677;SDS011;27364;49.026;8.712;2022-08-30T02:20:05;5.72;;;3.42;;
41677;SDS011;27364;49.026;8.712;2022-08-30T02:22:31;5.15;;;3.53;;
41677;SDS011;27364;49.026;8.712;2022-08-30T02:24:57;5.90;;;3.70;;
41677;SDS011;27364;49.026;8.712;2022-08-30T02:27:22;5.25;;;3.28;;
41677;SDS011;27364;49.026;8.712;2022-08-30T02:29:50;6.32;;;3.67;;
41677;SDS011;27364;49.026;8.712;2022-08-30T02:32:15;8.93;;;3.63;;
41677;SDS011;27364;49.026;8.712;2022-08-30T02:34:41;5.88;;;3.45;;
41677;SDS011;27364;49.026;8.712;2022-08-30T02:37:06;9.38;;;3.70;;
41677;SDS011;27364;49.026;8.712;2022-08-30T02:39:33;8.75;;;3.60;;
41677;SDS011;27364;49.026;8.712;2022-08-30T02:41:58;8.88;;;4.40;;
41677;SDS011;27364;49.026;8.712;2022-08-30T02:44:24;6.35;;;3.75;;
41677;SDS011;27364;49.026;8.712;2022-08-30T02:46:49;6.85;;;4.07;;
41677;SDS011;27364;49.026;8.712;2022-08-30T02:49:15;6.53;;;3.90;;
41677;SDS011;27364;49.026;8.712;2022-08-30T02:51:40;6.18;;;3.90;;
41677;SDS011;27364;49.026;8.712;2022-08-30T02:54:06;7.60;;;3.97;;
41677;SDS011;27364;49.026;8.712;2022-08-30T02:56:31;6.88;;;4.22;;
41677;SDS011;27364;49.026;8.712;2022-08-30T02:58:57;7.30;;;4.43;;
41677;SDS011;27364;49.026;8.712;2022-08-30T03:01:23;6.65;;;3.80;;
41677;SDS011;27364;49.026;8.712;2022-08-30T03:03:48;6.82;;;4.20;;
41677;SDS011;27364;49.026;8.712;2022-08-30T03:06:14;6.25;;;4.10;;
41677;SDS011;27364;49.026;8.712;2022-08-30T03:08:40;7.07;;;4.05;;
41677;SDS011;27364;49.026;8.712;2022-08-30T03:11:06;5.68;;;4.00;;
41677;SDS011;27364;49.026;8.712;2022-08-30T03:13:32;8.65;;;4.07;;
41677;SDS011;27364;49.026;8.712;2022-08-30T03:15:58;6.78;;;4.40;;
41677;SDS011;27364;49.026;8.712;2022-08-30T03:18:24;5.35;;;3.80;;
41677;SDS011;27364;49.026;8.712;2022-08-30T03:20:50;6.03;;;3.97;;
41677;SDS011;27364;49.026;8.712;2022-08-30T03:23:16;7.75;;;4.45;;
41677;SDS011;27364;49.026;8.712;2022-08-30T03:25:42;7.70;;;4.20;;
41677;SDS011;27364;49.026;8.712;2022-08-30T03:28:08;8.80;;;4.25;;
41677;SDS011;27364;49.026;8.712;2022-08-30T03:30:34;8.13;;;4.28;;
41677;SDS011;27364;49.026;8.712;2022-08-30T03:33:00;7.00;;;4.05;;
41677;SDS011;27364;49.026;8.712;2022-08-30T03:35:26;6.03;;;4.07;;
41677;SDS011;27364;49.026;8.712;2022-08-30T03:37:52;7.85;;;4.22;;
41677;SDS011;27364;49.026;8.712;2022-08-30T03:40:18;7.07;;;3.85;;
41677;SDS011;27364;49.026;8.712;2022-08-30T03:42:45;6.78;;;4.03;;
41677;SDS011;27364;49.026;8.712;2022-08-30T03:45:13;8.45;;;4.43;;
41677;SDS011;27364;49.026;8.712;2022-08-30T03:47:40;9.77;;;4.90;;
41677;SDS011;27364;49.026;8.712;2022-08-30T03:50:06;8.55;;;4.45;;
41677;SDS011;27364;49.026;8.712;2022-08-30T03:52:32;7.88;;;4.40;;
41677;SDS011;27364;49.026;8.712;2022-08-30T03:54:58;6.65;;;4.15;;
41677;SDS011;27364;49.026;8.712;2022-08-30T03:57:25;7.65;;;4.43;;
41677;SDS011;27364;49.026;8.712;2022-08-30T03:59:51;8.43;;;4.68;;
41677;SDS011;27364;49.026;8.712;2022-08-30T04:02:17;8.63;;;4.68;;
41677;SDS011;27364;49.026;8.712;2022-08-30T04:04:42;8.60;;;4.00;;
41677;SDS011;27364;49.026;8.712;2022-08-30T04:07:08;7.63;;;4.20;;
41677;SDS011;27364;49.026;8.712;2022-08-30T04:09:33;6.55;;;4.15;;
41677;SDS011;27364;49.026;8.712;2022-08-30T04:11:59;8.25;;;4.32;;
41677;SDS011;27364;49.026;8.712;2022-08-30T04:14:25;7.32;;;4.10;;
41677;SDS011;27364;49.026;8.712;2022-08-30T04:16:50;8.68;;;4.50;;
41677;SDS011;27364;49.026;8.712;2022-08-30T04:19:16;6.65;;;4.22;;
41677;SDS011;27364;49.026;8.712;2022-08-30T04:21:42;9.13;;;4.57;;
41677;SDS011;27364;49.026;8.712;2022-08-30T04:24:08;6.68;;;3.85;;
41677;SDS011;27364;49.026;8.712;2022-08-30T04:26:37;10.13;;;4.63;;
41677;SDS011;27364;49.026;8.712;2022-08-30T04:29:02;8.98;;;4.50;;
41677;SDS011;27364;49.026;8.712;2022-08-30T04:31:28;8.52;;;4.40;;
41677;SDS011;27364;49.026;8.712;2022-08-30T04:33:55;8.07;;;4.90;;
41677;SDS011;27364;49.026;8.712;2022-08-30T04:36:21;6.57;;;4.75;;
41677;SDS011;27364;49.026;8.712;2022-08-30T04:38:46;8.00;;;5.25;;
41677;SDS011;27364;49.026;8.712;2022-08-30T04:41:14;7.45;;;4.93;;
41677;SDS011;27364;49.026;8.712;2022-08-30T04:43:42;7.72;;;4.25;;
41677;SDS011;27364;49.026;8.712;2022-08-30T04:46:09;8.95;;;5.20;;
41677;SDS011;27364;49.026;8.712;2022-08-30T04:48:36;8.23;;;4.93;;
41677;SDS011;27364;49.026;8.712;2022-08-30T04:51:03;6.50;;;4.88;;
41677;SDS011;27364;49.026;8.712;2022-08-30T04:55:55;8.85;;;4.60;;
41677;SDS011;27364;49.026;8.712;2022-08-30T04:58:21;9.15;;;4.57;;
41677;SDS011;27364;49.026;8.712;2022-08-30T05:00:47;7.95;;;4.20;;
41677;SDS011;27364;49.026;8.712;2022-08-30T05:03:12;8.95;;;4.63;;
41677;SDS011;27364;49.026;8.712;2022-08-30T05:05:38;7.30;;;4.75;;
41677;SDS011;27364;49.026;8.712;2022-08-30T05:08:04;8.23;;;5.15;;
41677;SDS011;27364;49.026;8.712;2022-08-30T05:10:31;7.80;;;4.50;;
41677;SDS011;27364;49.026;8.712;2022-08-30T05:12:58;8.23;;;5.10;;
41677;SDS011;27364;49.026;8.712;2022-08-30T05:15:23;7.43;;;4.97;;
41677;SDS011;27364;49.026;8.712;2022-08-30T05:17:49;9.05;;;5.10;;
41677;SDS011;27364;49.026;8.712;2022-08-30T05:20:14;7.88;;;5.32;;
41677;SDS011;27364;49.026;8.712;2022-08-30T05:22:41;6.07;;;4.65;;
41677;SDS011;27364;49.026;8.712;2022-08-30T05:25:17;6.88;;;3.60;;
41677;SDS011;27364;49.026;8.712;2022-08-30T05:27:45;8.02;;;4.85;;
41677;SDS011;27364;49.026;8.712;2022-08-30T05:30:12;8.90;;;5.18;;
41677;SDS011;27364;49.026;8.712;2022-08-30T05:32:39;8.23;;;5.25;;
41677;SDS011;27364;49.026;8.712;2022-08-30T05:35:05;9.90;;;4.85;;
41677;SDS011;27364;49.026;8.712;2022-08-30T05:37:31;7.93;;;4.78;;
41677;SDS011;27364;49.026;8.712;2022-08-30T05:39:57;7.40;;;5.05;;
41677;SDS011;27364;49.026;8.712;2022-08-30T05:42:23;7.72;;;5.15;;
41677;SDS011;27364;49.026;8.712;2022-08-30T05:44:52;7.85;;;5.40;;
41677;SDS011;27364;49.026;8.712;2022-08-30T05:47:18;9.75;;;5.20;;
41677;SDS011;27364;49.026;8.712;2022-08-30T05:49:45;9.90;;;5.00;;
41677;SDS011;27364;49.026;8.712;2022-08-30T05:52:11;9.10;;;4.80;;
41677;SDS011;27364;49.026;8.712;2022-08-30T05:54:39;12.25;;;4.95;;
41677;SDS011;27364;49.026;8.712;2022-08-30T05:57:05;22.30;;;4.03;;
41677;SDS011;27364;49.026;8.712;2022-08-30T05:59:31;23.92;;;4.45;;
41677;SDS011;27364;49.026;8.712;2022-08-30T06:01:57;8.13;;;4.85;;
41677;SDS011;27364;49.026;8.712;2022-08-30T06:04:23;19.70;;;4.90;;
41677;SDS011;27364;49.026;8.712;2022-08-30T06:06:49;6.88;;;4.15;;
41677;SDS011;27364;49.026;8.712;2022-08-30T06:09:15;9.68;;;4.78;;
41677;SDS011;27364;49.026;8.712;2022-08-30T06:11:41;7.60;;;4.78;;
41677;SDS011;27364;49.026;8.712;2022-08-30T06:14:08;8.43;;;4.40;;
41677;SDS011;27364;49.026;8.712;2022-08-30T06:16:34;6.82;;;4.47;;
41677;SDS011;27364;49.026;8.712;2022-08-30T06:19:03;9.15;;;4.18;;
41677;SDS011;27364;49.026;8.712;2022-08-30T06:21:31;11.40;;;4.63;;
41677;SDS011;27364;49.026;8.712;2022-08-30T06:23:58;7.25;;;3.78;;
41677;SDS011;27364;49.026;8.712;2022-08-30T06:26:26;7.70;;;3.80;;
41677;SDS011;27364;49.026;8.712;2022-08-30T06:28:53;12.00;;;4.10;;
41677;SDS011;27364;49.026;8.712;2022-08-30T06:32:24;10.10;;;4.13;;
41677;SDS011;27364;49.026;8.712;2022-08-30T06:35:49;8.45;;;4.50;;
41677;SDS011;27364;49.026;8.712;2022-08-30T06:46:24;6.82;;;3.53;;
41677;SDS011;27364;49.026;8.712;2022-08-30T06:49:19;6.80;;;3.67;;
41677;SDS011;27364;49.026;8.712;2022-08-30T06:55:31;7.32;;;3.72;;
41677;SDS011;27364;49.026;8.712;2022-08-30T06:58:54;7.63;;;3.97;;
41677;SDS011;27364;49.026;8.712;2022-08-30T07:02:30;7.95;;;3.67;;
41677;SDS011;27364;49.026;8.712;2022-08-30T07:04:55;7.53;;;3.78;;
41677;SDS011;27364;49.026;8.712;2022-08-30T07:07:21;6.68;;;3.80;;
41677;SDS011;27364;49.026;8.712;2022-08-30T07:09:47;7.03;;;3.72;;
41677;SDS011;27364;49.026;8.712;2022-08-30T07:12:12;7.78;;;4.00;;
41677;SDS011;27364;49.026;8.712;2022-08-30T07:14:39;6.70;;;3.70;;
41677;SDS011;27364;49.026;8.712;2022-08-30T07:17:05;8.00;;;3.88;;
41677;SDS011;27364;49.026;8.712;2022-08-30T07:19:52;11.60;;;4.15;;
41677;SDS011;27364;49.026;8.712;2022-08-30T07:22:18;7.15;;;3.92;;
41677;SDS011;27364;49.026;8.712;2022-08-30T07:24:45;6.18;;;3.88;;
41677;SDS011;27364;49.026;8.712;2022-08-30T07:27:11;7.10;;;3.17;;
41677;SDS011;27364;49.026;8.712;2022-08-30T07:29:37;6.78;;;3.80;;
41677;SDS011;27364;49.026;8.712;2022-08-30T07:32:03;10.40;;;4.22;;
41677;SDS011;27364;49.026;8.712;2022-08-30T07:34:29;6.80;;;4.07;;
41677;SDS011;27364;49.026;8.712;2022-08-30T07:36:54;9.75;;;4.20;;
41677;SDS011;27364;49.026;8.712;2022-08-30T07:39:20;9.07;;;3.95;;
41677;SDS011;27364;49.026;8.712;2022-08-30T07:41:46;15.50;;;4.40;;
41677;SDS011;27364;49.026;8.712;2022-08-30T07:44:12;8.75;;;4.43;;
41677;SDS011;27364;49.026;8.712;2022-08-30T07:46:38;14.65;;;4.47;;
41677;SDS011;27364;49.026;8.712;2022-08-30T07:49:05;10.32;;;4.03;;
41677;SDS011;27364;49.026;8.712;2022-08-30T07:51:32;8.85;;;4.40;;
41677;SDS011;27364;49.026;8.712;2022-08-30T07:53:58;8.57;;;4.03;;
41677;SDS011;27364;49.026;8.712;2022-08-30T07:56:27;10.27;;;4.30;;
41677;SDS011;27364;49.026;8.712;2022-08-30T07:58:52;11.73;;;4.38;;
41677;SDS011;27364;49.026;8.712;2022-08-30T08:01:18;8.18;;;3.47;;
41677;SDS011;27364;49.026;8.712;2022-08-30T08:03:45;6.20;;;3.38;;
41677;SDS011;27364;49.026;8.712;2022-08-30T08:06:12;6.80;;;3.72;;
41677;SDS011;27364;49.026;8.712;2022-08-30T08:08:39;14.27;;;4.13;;
41677;SDS011;27364;49.026;8.712;2022-08-30T08:11:07;6.80;;;3.70;;
41677;SDS011;27364;49.026;8.712;2022-08-30T08:13:35;7.97;;;3.92;;
41677;SDS011;27364;49.026;8.712;2022-08-30T08:16:01;7.28;;;3.58;;
41677;SDS011;27364;49.026;8.712;2022-08-30T08:18:27;6.95;;;4.00;;
41677;SDS011;27364;49.026;8.712;2022-08-30T08:20:52;9.02;;;3.72;;
41677;SDS011;27364;49.026;8.712;2022-08-30T08:23:18;8.00;;;4.07;;
41677;SDS011;27364;49.026;8.712;2022-08-30T08:25:45;11.20;;;4.18;;
41677;SDS011;27364;49.026;8.712;2022-08-30T08:28:11;10.18;;;4.10;;
41677;SDS011;27364;49.026;8.712;2022-08-30T08:30:36;8.90;;;4.22;;
41677;SDS011;27364;49.026;8.712;2022-08-30T08:33:03;7.95;;;3.80;;
41677;SDS011;27364;49.026;8.712;2022-08-30T08:35:29;11.18;;;4.07;;
41677;SDS011;27364;49.026;8.712;2022-08-30T08:37:55;9.32;;;4.00;;
41677;SDS011;27364;49.026;8.712;2022-08-30T08:40:21;6.88;;;3.75;;
41677;SDS011;27364;49.026;8.712;2022-08-30T08:42:53;14.65;;;3.97;;
41677;SDS011;27364;49.026;8.712;2022-08-30T08:51:03;7.32;;;3.88;;
41677;SDS011;27364;49.026;8.712;2022-08-30T08:54:11;8.18;;;3.42;;
41677;SDS011;27364;49.026;8.712;2022-08-30T08:56:37;9.90;;;3.35;;
41677;SDS011;27364;49.026;8.712;2022-08-30T08:59:03;5.75;;;3.67;;
41677;SDS011;27364;49.026;8.712;2022-08-30T09:01:32;8.25;;;3.97;;
41677;SDS011;27364;49.026;8.712;2022-08-30T09:03:58;9.73;;;3.83;;
41677;SDS011;27364;49.026;8.712;2022-08-30T09:09:30;6.85;;;3.42;;
41677;SDS011;27364;49.026;8.712;2022-08-30T09:11:58;6.40;;;3.58;;
41677;SDS011;27364;49.026;8.712;2022-08-30T09:14:26;6.47;;;3.42;;
41677;SDS011;27364;49.026;8.712;2022-08-30T09:16:59;5.90;;;3.47;;
41677;SDS011;27364;49.026;8.712;2022-08-30T09:19:34;6.68;;;3.42;;
41677;SDS011;27364;49.026;8.712;2022-08-30T09:22:23;8.82;;;3.78;;
41677;SDS011;27364;49.026;8.712;2022-08-30T09:25:05;10.10;;;3.90;;
41677;SDS011;27364;49.026;8.712;2022-08-30T09:27:35;5.68;;;3.40;;
41677;SDS011;27364;49.026;8.712;2022-08-30T09:30:04;9.23;;;3.92;;
41677;SDS011;27364;49.026;8.712;2022-08-30T09:32:35;8.80;;;4.10;;
41677;SDS011;27364;49.026;8.712;2022-08-30T09:35:04;5.18;;;3.60;;
41677;SDS011;27364;49.026;8.712;2022-08-30T09:40:07;6.63;;;3.75;;
41677;SDS011;27364;49.026;8.712;2022-08-30T09:42:39;6.65;;;3.95;;
41677;SDS011;27364;49.026;8.712;2022-08-30T09:45:05;6.03;;;4.00;;
41677;SDS011;27364;49.026;8.712;2022-08-30T09:47:43;6.00;;;3.47;;
41677;SDS011;27364;49.026;8.712;2022-08-30T09:50:16;5.55;;;3.88;;
41677;SDS011;27364;49.026;8.712;2022-08-30T09:55:53;4.95;;;3.78;;
41677;SDS011;27364;49.026;8.712;2022-08-30T10:01:23;6.55;;;3.72;;
41677;SDS011;27364;49.026;8.712;2022-08-30T10:04:01;6.93;;;3.67;;
41677;SDS011;27364;49.026;8.712;2022-08-30T10:06:50;6.38;;;3.60;;
41677;SDS011;27364;49.026;8.712;2022-08-30T10:15:05;5.47;;;3.70;;
41677;SDS011;27364;49.026;8.712;2022-08-30T10:20:28;6.10;;;3.50;;
41677;SDS011;27364;49.026;8.712;2022-08-30T10:23:06;6.90;;;3.50;;
41677;SDS011;27364;49.026;8.712;2022-08-30T10:31:05;4.80;;;3.58;;
41677;SDS011;27364;49.026;8.712;2022-08-30T10:33:38;7.30;;;3.80;;
41677;SDS011;27364;49.026;8.712;2022-08-30T10:36:11;5.00;;;3.50;;
41677;SDS011;27364;49.026;8.712;2022-08-30T10:38:39;5.95;;;3.83;;
41677;SDS011;27364;49.026;8.712;2022-08-30T10:44:28;5.55;;;3.50;;
41677;SDS011;27364;49.026;8.712;2022-08-30T10:47:03;4.28;;;3.25;;
41677;SDS011;27364;49.026;8.712;2022-08-30T10:49:46;4.82;;;3.58;;
41677;SDS011;27364;49.026;8.712;2022-08-30T10:52:18;6.32;;;3.70;;
41677;SDS011;27364;49.026;8.712;2022-08-30T10:57:33;5.05;;;3.65;;
41677;SDS011;27364;49.026;8.712;2022-08-30T11:00:00;6.57;;;3.42;;
41677;SDS011;27364;49.026;8.712;2022-08-30T11:10:46;5.88;;;3.55;;
41677;SDS011;27364;49.026;8.712;2022-08-30T11:13:22;5.80;;;3.63;;
41677;SDS011;27364;49.026;8.712;2022-08-30T11:16:04;5.63;;;3.47;;
41677;SDS011;27364;49.026;8.712;2022-08-30T11:18:51;4.97;;;3.60;;
41677;SDS011;27364;49.026;8.712;2022-08-30T11:21:22;5.65;;;3.50;;
41677;SDS011;27364;49.026;8.712;2022-08-30T11:24:08;13.82;;;3.80;;
41677;SDS011;27364;49.026;8.712;2022-08-30T11:31:58;5.82;;;3.50;;
41677;SDS011;27364;49.026;8.712;2022-08-30T11:37:09;7.43;;;3.45;;
41677;SDS011;27364;49.026;8.712;2022-08-30T11:39:54;9.15;;;3.78;;
41677;SDS011;27364;49.026;8.712;2022-08-30T11:47:51;6.78;;;3.60;;
41677;SDS011;27364;49.026;8.712;2022-08-30T11:58:50;7.22;;;3.80;;
41677;SDS011;27364;49.026;8.712;2022-08-30T12:01:32;9.40;;;3.67;;
41677;SDS011;27364;49.026;8.712;2022-08-30T12:09:06;6.85;;;3.55;;
41677;SDS011;27364;49.026;8.712;2022-08-30T12:14:00;5.72;;;3.55;;
41677;SDS011;27364;49.026;8.712;2022-08-30T12:16:37;8.70;;;3.90;;
41677;SDS011;27364;49.026;8.712;2022-08-30T12:19:31;8.70;;;3.60;;
41677;SDS011;27364;49.026;8.712;2022-08-30T12:21:58;10.90;;;4.28;;
41677;SDS011;27364;49.026;8.712;2022-08-30T12:24:28;5.68;;;3.47;;
41677;SDS011;27364;49.026;8.712;2022-08-30T12:26:58;4.80;;;3.70;;
41677;SDS011;27364;49.026;8.712;2022-08-30T12:29:29;23.33;;;4.93;;
41677;SDS011;27364;49.026;8.712;2022-08-30T12:32:03;8.00;;;4.33;;
41677;SDS011;27364;49.026;8.712;2022-08-30T12:37:09;5.93;;;3.80;;
41677;SDS011;27364;49.026;8.712;2022-08-30T12:40:09;6.63;;;3.85;;
41677;SDS011;27364;49.026;8.712;2022-08-30T12:42:40;9.07;;;3.95;;
41677;SDS011;27364;49.026;8.712;2022-08-30T12:45:14;6.85;;;4.28;;
41677;SDS011;27364;49.026;8.712;2022-08-30T12:47:46;5.22;;;3.67;;
41677;SDS011;27364;49.026;8.712;2022-08-30T12:50:18;8.05;;;4.25;;
41677;SDS011;27364;49.026;8.712;2022-08-30T12:52:55;5.63;;;3.67;;
41677;SDS011;27364;49.026;8.712;2022-08-30T12:55:23;8.57;;;4.20;;
41677;SDS011;27364;49.026;8.712;2022-08-30T12:57:59;6.30;;;3.90;;
41677;SDS011;27364;49.026;8.712;2022-08-30T13:00:40;6.03;;;3.92;;
41677;SDS011;27364;49.026;8.712;2022-08-30T13:05:47;6.15;;;3.70;;
41677;SDS011;27364;49.026;8.712;2022-08-30T13:08:31;7.28;;;3.80;;
41677;SDS011;27364;49.026;8.712;2022-08-30T13:13:31;6.65;;;3.53;;
41677;SDS011;27364;49.026;8.712;2022-08-30T13:16:07;4.90;;;3.25;;
41677;SDS011;27364;49.026;8.712;2022-08-30T13:18:39;4.57;;;3.60;;
41677;SDS011;27364;49.026;8.712;2022-08-30T13:21:21;4.22;;;2.97;;
41677;SDS011;27364;49.026;8.712;2022-08-30T13:23:59;7.10;;;3.50;;
41677;SDS011;27364;49.026;8.712;2022-08-30T13:26:30;5.68;;;3.70;;
41677;SDS011;27364;49.026;8.712;2022-08-30T13:29:00;5.82;;;3.78;;
41677;SDS011;27364;49.026;8.712;2022-08-30T13:31:29;6.70;;;3.70;;
41677;SDS011;27364;49.026;8.712;2022-08-30T13:33:55;8.68;;;3.35;;
41677;SDS011;27364;49.026;8.712;2022-08-30T13:36:31;8.32;;;3.35;;
41677;SDS011;27364;49.026;8.712;2022-08-30T13:39:00;8.10;;;3.58;;
41677;SDS011;27364;49.026;8.712;2022-08-30T13:41:26;5.43;;;3.70;;
41677;SDS011;27364;49.026;8.712;2022-08-30T13:43:52;5.18;;;3.60;;
41677;SDS011;27364;49.026;8.712;2022-08-30T13:46:18;5.75;;;3.80;;
41677;SDS011;27364;49.026;8.712;2022-08-30T13:48:47;7.90;;;3.72;;
41677;SDS011;27364;49.026;8.712;2022-08-30T13:51:13;7.55;;;3.33;;
41677;SDS011;27364;49.026;8.712;2022-08-30T13:53:39;5.15;;;3.70;;
41677;SDS011;27364;49.026;8.712;2022-08-30T13:56:04;6.82;;;3.65;;
41677;SDS011;27364;49.026;8.712;2022-08-30T13:58:31;7.05;;;3.28;;
41677;SDS011;27364;49.026;8.712;2022-08-30T14:00:57;6.82;;;3.55;;
41677;SDS011;27364;49.026;8.712;2022-08-30T14:03:23;5.75;;;3.17;;
41677;SDS011;27364;49.026;8.712;2022-08-30T14:05:49;6.07;;;3.50;;
41677;SDS011;27364;49.026;8.712;2022-08-30T14:13:18;5.80;;;3.30;;
41677;SDS011;27364;49.026;8.712;2022-08-30T14:15:43;5.65;;;3.42;;
41677;SDS011;27364;49.026;8.712;2022-08-30T14:18:10;6.30;;;3.42;;
41677;SDS011;27364;49.026;8.712;2022-08-30T14:20:36;6.43;;;3.55;;
41677;SDS011;27364;49.026;8.712;2022-08-30T14:23:02;5.13;;;3.03;;
41677;SDS011;27364;49.026;8.712;2022-08-30T14:25:27;6.72;;;3.35;;
41677;SDS011;27364;49.026;8.712;2022-08-30T14:27:54;5.03;;;3.70;;
41677;SDS011;27364;49.026;8.712;2022-08-30T14:30:20;5.00;;;3.28;;
41677;SDS011;27364;49.026;8.712;2022-08-30T14:32:45;5.95;;;3.25;;
41677;SDS011;27364;49.026;8.712;2022-08-30T14:35:11;5.90;;;3.55;;
41677;SDS011;27364;49.026;8.712;2022-08-30T14:37:37;5.25;;;3.40;;
41677;SDS011;27364;49.026;8.712;2022-08-30T14:40:03;5.32;;;3.10;;
41677;SDS011;27364;49.026;8.712;2022-08-30T14:42:29;6.57;;;3.25;;
41677;SDS011;27364;49.026;8.712;2022-08-30T14:44:54;7.57;;;3.72;;
41677;SDS011;27364;49.026;8.712;2022-08-30T14:47:20;6.00;;;3.28;;
41677;SDS011;27364;49.026;8.712;2022-08-30T14:49:45;20.90;;;4.20;;
41677;SDS011;27364;49.026;8.712;2022-08-30T14:52:11;5.65;;;3.50;;
41677;SDS011;27364;49.026;8.712;2022-08-30T14:54:36;4.25;;;3.10;;
41677;SDS011;27364;49.026;8.712;2022-08-30T14:57:02;7.75;;;3.40;;
41677;SDS011;27364;49.026;8.712;2022-08-30T14:59:28;5.60;;;3.20;;
41677;SDS011;27364;49.026;8.712;2022-08-30T15:01:53;6.03;;;3.45;;
41677;SDS011;27364;49.026;8.712;2022-08-30T15:04:19;6.30;;;3.47;;
41677;SDS011;27364;49.026;8.712;2022-08-30T15:06:46;6.90;;;3.35;;
41677;SDS011;27364;49.026;8.712;2022-08-30T15:09:14;6.35;;;3.38;;
41677;SDS011;27364;49.026;8.712;2022-08-30T15:11:43;4.95;;;3.17;;
41677;SDS011;27364;49.026;8.712;2022-08-30T15:14:09;4.00;;;3.10;;
41677;SDS011;27364;49.026;8.712;2022-08-30T15:16:36;7.18;;;3.42;;
41677;SDS011;27364;49.026;8.712;2022-08-30T15:19:03;5.93;;;3.55;;
41677;SDS011;27364;49.026;8.712;2022-08-30T15:21:31;4.65;;;3.15;;
41677;SDS011;27364;49.026;8.712;2022-08-30T15:23:59;8.38;;;3.60;;
41677;SDS011;27364;49.026;8.712;2022-08-30T15:26:26;12.32;;;3.50;;
41677;SDS011;27364;49.026;8.712;2022-08-30T15:28:53;5.90;;;3.60;;
41677;SDS011;27364;49.026;8.712;2022-08-30T15:31:20;5.55;;;3.20;;
41677;SDS011;27364;49.026;8.712;2022-08-30T15:33:48;4.93;;;3.45;;
41677;SDS011;27364;49.026;8.712;2022-08-30T15:36:14;6.03;;;3.45;;
41677;SDS011;27364;49.026;8.712;2022-08-30T15:38:39;6.38;;;3.20;;
41677;SDS011;27364;49.026;8.712;2022-08-30T15:41:07;5.13;;;3.30;;
41677;SDS011;27364;49.026;8.712;2022-08-30T15:43:35;6.20;;;3.17;;
41677;SDS011;27364;49.026;8.712;2022-08-30T15:46:12;6.37;;;3.53;;
41677;SDS011;27364;49.026;8.712;2022-08-30T15:48:43;5.50;;;3.33;;
41677;SDS011;27364;49.026;8.712;2022-08-30T15:51:13;6.28;;;3.65;;
41677;SDS011;27364;49.026;8.712;2022-08-30T15:53:40;5.65;;;3.03;;
41677;SDS011;27364;49.026;8.712;2022-08-30T15:56:06;7.35;;;3.58;;
41677;SDS011;27364;49.026;8.712;2022-08-30T15:58:46;5.15;;;3.33;;
41677;SDS011;27364;49.026;8.712;2022-08-30T16:01:12;6.38;;;3.45;;
41677;SDS011;27364;49.026;8.712;2022-08-30T16:03:39;27.05;;;4.10;;
41677;SDS011;27364;49.026;8.712;2022-08-30T16:06:09;5.47;;;3.33;;
41677;SDS011;27364;49.026;8.712;2022-08-30T16:08:36;6.68;;;3.40;;
41677;SDS011;27364;49.026;8.712;2022-08-30T16:11:03;6.45;;;3.50;;
41677;SDS011;27364;49.026;8.712;2022-08-30T16:13:31;5.30;;;3.45;;
41677;SDS011;27364;49.026;8.712;2022-08-30T16:15:59;8.15;;;3.60;;
41677;SDS011;27364;49.026;8.712;2022-08-30T16:18:25;5.80;;;3.28;;
41677;SDS011;27364;49.026;8.712;2022-08-30T16:21:00;4.65;;;3.10;;
41677;SDS011;27364;49.026;8.712;2022-08-30T16:23:27;4.78;;;3.20;;
41677;SDS011;27364;49.026;8.712;2022-08-30T16:25:53;5.28;;;3.25;;
41677;SDS011;27364;49.026;8.712;2022-08-30T16:28:19;6.28;;;3.08;;
41677;SDS011;27364;49.026;8.712;2022-08-30T16:30:44;4.20;;;3.15;;
41677;SDS011;27364;49.026;8.712;2022-08-30T16:33:10;4.60;;;3.20;;
41677;SDS011;27364;49.026;8.712;2022-08-30T16:35:35;5.07;;;3.35;;
41677;SDS011;27364;49.026;8.712;2022-08-30T16:38:01;4.38;;;3.25;;
41677;SDS011;27364;49.026;8.712;2022-08-30T16:40:26;4.78;;;3.22;;
41677;SDS011;27364;49.026;8.712;2022-08-30T16:42:52;5.35;;;3.30;;
41677;SDS011;27364;49.026;8.712;2022-08-30T16:45:17;6.50;;;3.50;;